Terminal Aerodrome Forecast
Issued by NWS

Home | Current Version | Previous Version | Text Only | Print | Product List | Glossary On
Versions: 1 2 3 4 5 6 7 8 9 10 11 12 13 14 15 16 17 18 19
000
FTPA31 PHFO 240418 AAC
TAFHTO
TAF AMD
PHTO 240418Z 2404/2424 15011G17KT 5SM -RA BR SCT008 OVC020
      TEMPO 2404/2406 2SM RA BR
     FM241600 16011KT P6SM -SHRA BKN025=

USA.gov is the U.S. government's official web portal to all federal, state and local government web resources and services.